Time,TemperatureF,DewpointF,PressureIn,WindDirection,WindDirectionDegrees,WindSpeedMPH,WindSpeedGustMPH,Humidity,HourlyPrecipIn,Conditions,Clouds,dailyrainin,SoftwareType,DateUTC
2013-04-12 00:17:00,31.8,24.1,29.75,West,270,6.5,13.0,73,0.00,,,0.02,open2300-1.11,2013-04-12 05:17:00,
2013-04-12 01:17:00,30.9,22.9,29.76,WNW,292,5.6,8.1,72,0.00,,,0.02,open2300-1.11,2013-04-12 06:17:00,
2013-04-12 03:17:00,30.7,23.4,29.76,NNW,337,4.9,15.4,74,0.00,,,0.02,open2300-1.11,2013-04-12 08:17:00,
2013-04-12 04:17:00,30.9,23.9,29.78,NW,315,4.0,14.1,75,0.00,,,0.02,open2300-1.11,2013-04-12 09:17:00,
2013-04-12 05:17:00,30.9,23.9,29.78,WNW,292,5.1,10.1,75,0.00,,,0.02,open2300-1.11,2013-04-12 10:17:00,
2013-04-12 06:17:00,30.9,23.9,29.80,WNW,292,6.5,14.8,75,0.00,,,0.02,open2300-1.11,2013-04-12 11:17:00,
2013-04-12 07:17:00,31.1,24.1,29.83,WNW,292,4.9,9.6,75,0.00,,,0.02,open2300-1.11,2013-04-12 12:17:00,
2013-04-12 08:17:00,31.3,23.6,29.84,WNW,292,2.9,14.1,73,0.00,,,0.02,open2300-1.11,2013-04-12 13:17:00,
2013-04-12 09:17:00,34.2,25.7,29.88,West,270,5.6,11.6,71,0.00,,,0.02,open2300-1.11,2013-04-12 14:17:00,
2013-04-12 10:17:00,35.8,25.9,29.89,NW,315,7.2,11.6,67,0.00,,,0.02,open2300-1.11,2013-04-12 15:17:00,
2013-04-12 11:17:00,37.2,25.8,29.90,NW,315,9.4,14.8,63,0.00,,,0.02,open2300-1.11,2013-04-12 16:17:00,
2013-04-12 12:17:00,39.4,27.0,29.91,WNW,292,9.2,11.0,61,0.00,,,0.02,open2300-1.11,2013-04-12 17:17:00,
2013-04-12 15:17:00,44.2,28.1,29.92,WNW,292,7.4,15.2,53,0.00,,,0.00,open2300-1.11,2013-04-12 20:17:00,
2013-04-12 16:17:00,46.6,29.4,29.92,WSW,247,6.5,15.2,51,0.00,,,0.00,open2300-1.11,2013-04-12 21:17:00,
2013-04-12 17:17:00,47.1,28.9,29.92,WNW,292,2.7,14.1,49,0.00,,,0.00,open2300-1.11,2013-04-12 22:17:00,
2013-04-12 18:17:00,46.0,28.4,29.94,NW,315,12.8,13.2,50,0.00,,,0.00,open2300-1.11,2013-04-12 23:17:00,
2013-04-12 19:17:00,43.3,27.3,29.96,WNW,292,6.9,13.4,53,0.00,,,0.00,open2300-1.11,2013-04-13 00:17:00,
2013-04-12 20:17:00,41.4,25.9,29.95,NW,315,0.0,11.0,54,0.00,,,0.00,open2300-1.11,2013-04-13 01:17:00,
2013-04-12 21:17:00,39.4,25.3,29.96,NW,315,0.0,7.4,57,0.00,,,0.00,open2300-1.11,2013-04-13 02:17:00,
2013-04-12 22:17:00,38.1,25.5,29.99,NW,315,0.0,4.0,60,0.00,,,0.00,open2300-1.11,2013-04-13 03:17:00,
2013-04-12 23:17:00,37.4,25.9,30.00,NW,315,0.0,6.9,63,0.00,,,0.00,open2300-1.11,2013-04-13 04:17:00,